メインページ
METAR-TAF:

METAR-TAF

空港 :

フェアバンクス国際空港

フェアバンクス, アラスカ州, アメリカ合衆国

緯度: 64-48-14N, 経度: 147-52-34W, 海抜: 132m

現時点の気象観測

当レポートは58分前の06:53(UTC)に作成
の風 4kt
気温 17°C
湿度 72%
気圧 1017 hPa
視程: 16.1km
高度11000ftの雲は散在している
高度15000ftの千切れ雲あり
高度20000ftの千切れ雲あり

METAR: PAFA 190653Z 19004KT 10SM SCT110 BKN150 BKN200 17/12 A3003 RMK AO2 SLP174 T01720122

時間: 23:51 (07:51 UTC)

予報

当レポートは2時間28分前の05:23(UTC)に作成
予報は19日の 06時(UTC)から 20日の 12時(UTC)まで有効
変向風 4kt
視程: 10km
高度8000ftの雲はほとんどない
高度12000ftの千切れ雲あり
高度20000ftの千切れ雲あり
19日の 1900時(UTC)から
西の風 8kt、最大14ktの突風を伴う
視程: 10km
高度2500ftの雲は散在している
高度5000ftの曇り
近辺でにわか雨

TAF: PAFA 190523Z 1906/2012 VRB04KT P6SM FEW080 BKN120 BKN200 FM191900 26008G14KT P6SM VCSH SCT025 OVC050

4,000以上の空港の気象観測と天気予報(METAR報とTAF報)

利用可能な観測所は地図上に黄色い丸と赤い丸で示す。

丸の上にカーソルを重ねると観測所名を参照できる。

次にクリックすると気象観測と天気予報を参照できる。

マップの切り替え:黒色「×」印の緑ボタンをクリックして拡大、「-」印の緑ボタンをクリックして縮小、緑色の三角印をクリックして隣りの地図に切り替え


METAR-TAF: